Time;durP1;ratioP1;P1;durP2;ratioP2;P2;SDS_P1;SDS_P2;PMS_P1;PMS_P2;Temp;Humidity;BMP_temperature;BMP_pressure;BME280_temperature;BME280_humidity;BME280_pressure;Samples;Min_cycle;Max_cycle;Signal;HPM_P1;HPM_P2
2023/06/07 00:00:07;;;;;;;5.35;3.03;;;;;;;;;;5037843;28;20484;-67
2023/06/07 00:02:53;;;;;;;8.00;3.03;;;;;;;;;;5049228;28;20093;-69
2023/06/07 00:05:38;;;;;;;3.42;2.47;;;;;;;;;;5030944;28;20055;-68
2023/06/07 00:08:24;;;;;;;4.47;2.50;;;;;;;;;;5022647;28;20534;-68
2023/06/07 00:11:09;;;;;;;4.30;2.85;;;;;;;;;;5045839;28;20396;-68
2023/06/07 00:13:55;;;;;;;4.68;2.58;;;;;;;;;;5036501;28;20476;-67
2023/06/07 00:16:40;;;;;;;5.93;2.75;;;;;;;;;;5041863;28;20040;-68
2023/06/07 00:19:26;;;;;;;3.60;2.70;;;;;;;;;;5029593;28;20079;-70
2023/06/07 00:22:13;;;;;;;4.80;2.67;;;;;;;;;;5028628;28;20531;-70
2023/06/07 00:24:59;;;;;;;7.80;3.50;;;;;;;;;;5033084;28;20053;-71
2023/06/07 00:27:44;;;;;;;5.88;2.92;;;;;;;;;;5037582;28;20260;-73
2023/06/07 00:30:29;;;;;;;4.18;2.85;;;;;;;;;;5039077;28;20045;-71
2023/06/07 00:33:14;;;;;;;3.83;2.67;;;;;;;;;;5026658;28;20024;-73
2023/06/07 00:36:00;;;;;;;4.78;3.00;;;;;;;;;;5035980;28;20535;-67
2023/06/07 00:38:45;;;;;;;4.22;2.78;;;;;;;;;;5037871;28;20453;-68
2023/06/07 00:41:30;;;;;;;5.50;2.78;;;;;;;;;;5042443;28;20051;-68
2023/06/07 00:44:16;;;;;;;5.50;2.72;;;;;;;;;;5024994;28;20531;-67
2023/06/07 00:47:02;;;;;;;4.10;2.72;;;;;;;;;;5038659;28;20517;-67
2023/06/07 00:49:47;;;;;;;4.68;2.63;;;;;;;;;;5031676;28;20311;-68
2023/06/07 00:52:33;;;;;;;7.50;2.97;;;;;;;;;;5047951;28;20033;-67
2023/06/07 00:55:19;;;;;;;6.65;3.40;;;;;;;;;;5018331;28;20042;-73
2023/06/07 00:58:04;;;;;;;5.30;3.05;;;;;;;;;;5030702;28;20119;-73
2023/06/07 01:00:50;;;;;;;3.95;2.55;;;;;;;;;;5037145;28;20064;-75
2023/06/07 01:03:36;;;;;;;5.63;3.10;;;;;;;;;;5055508;28;20067;-74
2023/06/07 01:06:24;;;;;;;5.05;2.88;;;;;;;;;;5043028;28;20044;-74
2023/06/07 01:09:13;;;;;;;4.97;2.72;;;;;;;;;;5027247;28;20027;-74
2023/06/07 01:11:59;;;;;;;6.78;2.47;;;;;;;;;;5044496;28;20048;-74
2023/06/07 01:14:45;;;;;;;7.68;3.90;;;;;;;;;;5044331;28;20531;-73
2023/06/07 01:17:31;;;;;;;5.57;3.22;;;;;;;;;;5058466;28;20037;-73
2023/06/07 01:20:21;;;;;;;4.18;2.92;;;;;;;;;;5026478;28;20495;-73
2023/06/07 01:23:07;;;;;;;4.70;3.00;;;;;;;;;;5036016;28;20037;-73
2023/06/07 01:25:52;;;;;;;4.65;2.60;;;;;;;;;;5043613;28;20043;-74
2023/06/07 01:28:41;;;;;;;6.10;3.20;;;;;;;;;;5037698;28;20124;-70
2023/06/07 01:31:26;;;;;;;4.43;2.80;;;;;;;;;;5031338;28;20390;-70
2023/06/07 01:34:12;;;;;;;4.43;2.80;;;;;;;;;;5028597;28;20040;-70
2023/06/07 01:36:58;;;;;;;6.35;3.25;;;;;;;;;;5044081;28;20435;-70
2023/06/07 01:39:44;;;;;;;4.47;2.78;;;;;;;;;;5045225;28;20033;-70
2023/06/07 01:42:29;;;;;;;6.22;2.97;;;;;;;;;;5017115;28;20103;-70
2023/06/07 01:45:14;;;;;;;4.88;3.70;;;;;;;;;;5028435;28;20146;-71
2023/06/07 01:48:00;;;;;;;3.30;2.58;;;;;;;;;;5043755;28;20588;-75
2023/06/07 01:50:45;;;;;;;3.95;2.47;;;;;;;;;;5046269;28;20039;-72
2023/06/07 01:53:30;;;;;;;5.03;3.33;;;;;;;;;;5037883;28;20041;-74
2023/06/07 01:56:31;;;;;;;4.88;2.70;;;;;;;;;;5033005;28;20079;-73
2023/06/07 01:59:23;;;;;;;6.13;3.08;;;;;;;;;;5027618;28;20432;-73
2023/06/07 02:02:11;;;;;;;5.57;3.05;;;;;;;;;;5040677;28;20120;-76
2023/06/07 02:04:58;;;;;;;4.90;3.00;;;;;;;;;;5025947;28;20642;-70
2023/06/07 02:07:47;;;;;;;5.82;3.20;;;;;;;;;;5032453;28;20500;-73
2023/06/07 02:10:33;;;;;;;6.60;3.03;;;;;;;;;;5039689;28;20116;-67
2023/06/07 02:13:19;;;;;;;4.78;2.72;;;;;;;;;;5044536;28;20037;-67
2023/06/07 02:16:04;;;;;;;5.07;2.90;;;;;;;;;;5039941;28;20037;-67
2023/06/07 02:18:50;;;;;;;6.97;2.92;;;;;;;;;;5029470;28;20522;-68
2023/06/07 02:21:38;;;;;;;6.10;3.08;;;;;;;;;;5033091;28;20033;-67
2023/06/07 02:24:25;;;;;;;9.00;4.05;;;;;;;;;;5043330;28;20025;-70
2023/06/07 02:27:10;;;;;;;5.47;3.10;;;;;;;;;;5037061;28;21139;-73
2023/06/07 02:29:55;;;;;;;6.40;3.33;;;;;;;;;;5029114;28;20029;-75
2023/06/07 02:32:41;;;;;;;3.08;2.50;;;;;;;;;;5036408;28;20032;-75
2023/06/07 02:35:26;;;;;;;6.10;3.10;;;;;;;;;;5034141;28;20088;-72
2023/06/07 02:38:12;;;;;;;5.15;3.25;;;;;;;;;;5042474;28;20783;-74
2023/06/07 02:40:58;;;;;;;4.13;2.65;;;;;;;;;;5029223;28;20373;-72
2023/06/07 02:43:44;;;;;;;4.43;2.92;;;;;;;;;;5013425;28;20059;-76
2023/06/07 02:46:29;;;;;;;4.35;2.88;;;;;;;;;;5044556;28;20480;-70
2023/06/07 02:49:14;;;;;;;6.05;3.10;;;;;;;;;;5044659;28;20396;-73
2023/06/07 02:52:00;;;;;;;4.28;2.88;;;;;;;;;;5041489;28;20040;-72
2023/06/07 02:54:45;;;;;;;4.65;3.15;;;;;;;;;;5029597;28;20384;-72
2023/06/07 02:57:30;;;;;;;5.22;3.10;;;;;;;;;;5035398;28;20040;-69
2023/06/07 03:00:16;;;;;;;5.05;2.90;;;;;;;;;;5038583;28;20119;-73
2023/06/07 03:03:05;;;;;;;3.35;2.53;;;;;;;;;;5042697;28;20091;-71
2023/06/07 03:05:50;;;;;;;6.47;3.28;;;;;;;;;;5022585;28;20252;-70
2023/06/07 03:08:35;;;;;;;5.00;3.05;;;;;;;;;;5026841;28;20068;-70
2023/06/07 03:11:21;;;;;;;6.65;3.20;;;;;;;;;;5041522;28;20033;-70
2023/06/07 03:14:06;;;;;;;5.82;3.00;;;;;;;;;;5040310;28;20071;-70
2023/06/07 03:16:52;;;;;;;5.65;2.67;;;;;;;;;;5042920;28;20043;-70
2023/06/07 03:19:38;;;;;;;4.22;3.03;;;;;;;;;;5030459;28;20029;-70
2023/06/07 03:22:23;;;;;;;5.18;3.17;;;;;;;;;;5034228;28;20029;-68
2023/06/07 03:25:08;;;;;;;4.53;2.80;;;;;;;;;;5046201;28;20043;-68
2023/06/07 03:27:55;;;;;;;3.83;2.78;;;;;;;;;;5037417;28;20044;-68
2023/06/07 03:30:41;;;;;;;6.22;3.13;;;;;;;;;;5026527;28;20040;-66
2023/06/07 03:33:26;;;;;;;5.07;3.20;;;;;;;;;;5029530;28;20068;-66
2023/06/07 03:36:11;;;;;;;7.10;3.30;;;;;;;;;;5041082;28;20040;-67
2023/06/07 03:38:57;;;;;;;5.30;3.15;;;;;;;;;;5020733;28;20039;-70
2023/06/07 03:41:43;;;;;;;5.75;3.15;;;;;;;;;;5009113;28;20040;-72
2023/06/07 03:44:28;;;;;;;6.05;3.20;;;;;;;;;;5029949;28;20029;-72
2023/06/07 03:47:13;;;;;;;4.05;2.70;;;;;;;;;;5040150;28;20112;-71
2023/06/07 03:49:58;;;;;;;5.25;3.38;;;;;;;;;;5043027;28;20033;-72
2023/06/07 03:52:43;;;;;;;8.25;3.45;;;;;;;;;;5043634;28;20450;-72
2023/06/07 03:55:29;;;;;;;5.43;3.10;;;;;;;;;;5028097;28;20029;-71
2023/06/07 03:58:18;;;;;;;5.32;3.13;;;;;;;;;;5029590;28;20418;-77
2023/06/07 04:01:03;;;;;;;4.68;2.88;;;;;;;;;;5036448;28;20064;-76
2023/06/07 04:03:48;;;;;;;5.13;3.40;;;;;;;;;;5038003;28;20112;-76
2023/06/07 04:06:34;;;;;;;5.30;3.10;;;;;;;;;;5012773;28;20036;-75
2023/06/07 04:09:19;;;;;;;4.70;3.05;;;;;;;;;;5024586;28;20041;-75
2023/06/07 04:12:05;;;;;;;6.05;3.05;;;;;;;;;;5035093;28;20057;-75
2023/06/07 04:14:50;;;;;;;4.93;2.92;;;;;;;;;;5041097;28;20044;-75
2023/06/07 04:17:35;;;;;;;6.80;3.45;;;;;;;;;;5037358;28;20120;-72
2023/06/07 04:20:21;;;;;;;4.80;3.03;;;;;;;;;;5031809;28;20036;-73
2023/06/07 04:23:06;;;;;;;5.60;3.40;;;;;;;;;;5036761;28;20135;-74
2023/06/07 04:25:54;;;;;;;4.20;3.05;;;;;;;;;;5041642;28;20029;-73
2023/06/07 04:28:41;;;;;;;6.40;3.50;;;;;;;;;;5043665;28;20067;-74
2023/06/07 04:31:29;;;;;;;5.25;3.30;;;;;;;;;;5017517;28;20032;-72
2023/06/07 04:34:17;;;;;;;4.72;3.40;;;;;;;;;;5034005;28;20400;-68
2023/06/07 04:37:03;;;;;;;6.60;3.35;;;;;;;;;;5043594;28;20038;-74
2023/06/07 04:39:49;;;;;;;10.25;3.85;;;;;;;;;;5043292;28;20488;-72
2023/06/07 04:42:37;;;;;;;6.60;3.30;;;;;;;;;;5026520;28;20454;-73
2023/06/07 04:45:28;;;;;;;6.68;3.42;;;;;;;;;;5027550;28;20404;-76
2023/06/07 04:48:13;;;;;;;5.30;3.00;;;;;;;;;;5042895;28;20033;-76
2023/06/07 04:51:04;;;;;;;5.53;3.38;;;;;;;;;;5038837;28;20537;-75
2023/06/07 04:53:50;;;;;;;6.57;3.30;;;;;;;;;;5032140;28;20060;-72
2023/06/07 04:56:35;;;;;;;5.25;3.75;;;;;;;;;;5029407;28;20040;-71
2023/06/07 04:59:20;;;;;;;5.10;3.22;;;;;;;;;;5043565;28;20025;-70
2023/06/07 05:02:05;;;;;;;5.15;3.67;;;;;;;;;;5050591;28;20040;-71
2023/06/07 05:04:53;;;;;;;6.70;3.40;;;;;;;;;;5051301;28;20367;-71
2023/06/07 05:07:41;;;;;;;6.43;3.13;;;;;;;;;;5034278;28;20099;-71
2023/06/07 05:10:26;;;;;;;6.28;3.38;;;;;;;;;;5038924;28;20033;-70
2023/06/07 05:13:11;;;;;;;4.63;3.10;;;;;;;;;;5043596;28;20502;-73
2023/06/07 05:15:56;;;;;;;7.03;4.15;;;;;;;;;;5037399;28;20103;-73
2023/06/07 05:18:42;;;;;;;6.68;3.88;;;;;;;;;;5035687;28;20108;-76
2023/06/07 05:21:27;;;;;;;7.22;3.45;;;;;;;;;;5028871;28;20040;-74
2023/06/07 05:24:12;;;;;;;4.75;3.38;;;;;;;;;;5048362;28;20041;-75
2023/06/07 05:26:58;;;;;;;6.50;3.65;;;;;;;;;;5039792;28;20391;-74
2023/06/07 05:29:43;;;;;;;5.80;3.63;;;;;;;;;;5035792;28;20041;-66
2023/06/07 05:32:29;;;;;;;6.47;3.55;;;;;;;;;;5034141;28;20510;-65
2023/06/07 05:35:14;;;;;;;6.63;4.05;;;;;;;;;;5046787;28;20069;-67
2023/06/07 05:37:59;;;;;;;5.80;3.53;;;;;;;;;;5038352;28;20323;-66
2023/06/07 05:40:44;;;;;;;5.80;3.70;;;;;;;;;;5046973;28;20041;-65
2023/06/07 05:43:30;;;;;;;10.10;4.00;;;;;;;;;;5030933;28;20510;-66
2023/06/07 05:46:15;;;;;;;5.60;3.70;;;;;;;;;;5029981;28;20033;-72
2023/06/07 05:49:00;;;;;;;5.90;3.83;;;;;;;;;;5043993;28;20033;-61
2023/06/07 05:51:45;;;;;;;7.10;3.60;;;;;;;;;;5047725;28;20036;-61
2023/06/07 05:54:31;;;;;;;7.00;4.43;;;;;;;;;;5034757;28;20034;-62
2023/06/07 05:57:16;;;;;;;6.68;4.32;;;;;;;;;;5024788;28;20061;-62
2023/06/07 06:00:04;;;;;;;9.43;4.53;;;;;;;;;;5036474;28;20033;-64
2023/06/07 06:02:52;;;;;;;8.98;4.65;;;;;;;;;;5040226;28;20041;-64
2023/06/07 06:05:37;;;;;;;6.82;4.82;;;;;;;;;;5034429;28;20025;-70
2023/06/07 06:08:23;;;;;;;12.63;4.97;;;;;;;;;;5026079;28;20399;-68
2023/06/07 06:11:09;;;;;;;9.07;4.85;;;;;;;;;;5035256;28;20225;-67
2023/06/07 06:13:54;;;;;;;6.68;4.75;;;;;;;;;;5039504;28;20435;-66
2023/06/07 06:16:40;;;;;;;8.85;5.20;;;;;;;;;;5047716;28;20059;-65
2023/06/07 06:19:25;;;;;;;8.43;5.15;;;;;;;;;;5031629;28;20044;-68
2023/06/07 06:22:10;;;;;;;10.05;4.97;;;;;;;;;;5028443;28;20041;-67
2023/06/07 06:24:57;;;;;;;9.05;5.22;;;;;;;;;;5047808;28;20039;-64
2023/06/07 06:27:42;;;;;;;9.55;5.10;;;;;;;;;;5046871;28;20392;-67
2023/06/07 06:30:27;;;;;;;8.02;5.68;;;;;;;;;;5041738;28;20460;-64
2023/06/07 06:33:12;;;;;;;7.55;4.50;;;;;;;;;;5029953;28;20036;-66
2023/06/07 06:35:59;;;;;;;9.23;5.68;;;;;;;;;;5044712;28;20476;-66
2023/06/07 06:38:44;;;;;;;15.10;6.03;;;;;;;;;;5038939;28;20106;-66
2023/06/07 06:41:30;;;;;;;10.48;6.22;;;;;;;;;;5037921;28;20510;-74
2023/06/07 06:44:15;;;;;;;12.07;5.95;;;;;;;;;;5027985;28;20752;-73
2023/06/07 06:47:00;;;;;;;8.20;5.10;;;;;;;;;;5034148;28;20033;-73
2023/06/07 06:49:45;;;;;;;9.95;5.00;;;;;;;;;;5039792;28;20472;-69
2023/06/07 06:52:31;;;;;;;10.55;5.38;;;;;;;;;;5038626;28;20029;-70
2023/06/07 06:55:17;;;;;;;8.02;5.25;;;;;;;;;;5024136;28;20046;-70
2023/06/07 06:58:02;;;;;;;9.23;4.85;;;;;;;;;;5033418;28;20536;-70
2023/06/07 07:00:47;;;;;;;6.68;5.10;;;;;;;;;;5039345;28;20032;-73
2023/06/07 07:03:32;;;;;;;7.80;4.38;;;;;;;;;;5038076;28;20201;-65
2023/06/07 07:06:18;;;;;;;8.00;5.00;;;;;;;;;;5037329;28;20067;-66
2023/06/07 07:09:03;;;;;;;10.38;4.35;;;;;;;;;;5031390;28;20025;-67
2023/06/07 07:11:48;;;;;;;8.68;4.75;;;;;;;;;;5030464;28;20034;-66
2023/06/07 07:14:33;;;;;;;8.90;4.70;;;;;;;;;;5045579;28;21360;-67
2023/06/07 07:17:19;;;;;;;8.75;3.75;;;;;;;;;;5042284;28;20072;-68
2023/06/07 07:20:05;;;;;;;7.07;4.10;;;;;;;;;;5025625;28;20535;-62
2023/06/07 07:22:50;;;;;;;7.70;3.72;;;;;;;;;;5032669;28;20079;-72
2023/06/07 07:25:36;;;;;;;5.65;3.45;;;;;;;;;;5043214;28;20041;-75
2023/06/07 07:28:21;;;;;;;7.80;4.03;;;;;;;;;;5043436;28;20041;-74
2023/06/07 07:31:06;;;;;;;10.82;4.00;;;;;;;;;;5042775;28;20511;-73
2023/06/07 07:33:51;;;;;;;6.95;3.63;;;;;;;;;;5023938;28;20048;-75
2023/06/07 07:36:38;;;;;;;4.88;3.22;;;;;;;;;;5033515;28;20499;-73
2023/06/07 07:39:25;;;;;;;5.75;3.53;;;;;;;;;;5041174;28;20041;-69
2023/06/07 07:42:10;;;;;;;6.35;3.60;;;;;;;;;;5038799;28;20041;-69
2023/06/07 07:44:56;;;;;;;5.80;3.53;;;;;;;;;;5023409;28;20040;-68
2023/06/07 07:47:43;;;;;;;5.53;3.42;;;;;;;;;;5026240;28;20423;-68
2023/06/07 07:50:29;;;;;;;4.88;2.45;;;;;;;;;;5042392;28;20054;-68
2023/06/07 07:53:15;;;;;;;6.60;3.08;;;;;;;;;;5042490;28;20128;-69
2023/06/07 07:56:00;;;;;;;4.20;2.70;;;;;;;;;;5044677;28;20172;-64
2023/06/07 07:58:45;;;;;;;3.65;2.47;;;;;;;;;;5032703;28;20457;-68
2023/06/07 08:01:31;;;;;;;3.67;2.47;;;;;;;;;;5040524;28;20065;-66
2023/06/07 08:04:16;;;;;;;5.88;2.85;;;;;;;;;;5037382;28;20540;-66
2023/06/07 08:07:01;;;;;;;6.82;2.90;;;;;;;;;;5038803;28;20029;-67
2023/06/07 08:09:47;;;;;;;4.82;2.47;;;;;;;;;;5029447;28;20082;-66
2023/06/07 08:12:32;;;;;;;6.28;3.13;;;;;;;;;;5023769;28;20041;-66
2023/06/07 08:15:17;;;;;;;5.88;2.65;;;;;;;;;;5037512;28;20040;-77
2023/06/07 08:18:02;;;;;;;3.88;2.40;;;;;;;;;;5023129;28;20091;-66
2023/06/07 08:20:48;;;;;;;4.20;2.65;;;;;;;;;;5008633;28;20272;-62
2023/06/07 08:23:33;;;;;;;3.45;2.08;;;;;;;;;;5013134;28;20423;-62
2023/06/07 08:26:18;;;;;;;4.03;2.20;;;;;;;;;;5042743;28;20033;-61
2023/06/07 08:29:04;;;;;;;7.40;2.72;;;;;;;;;;5038973;28;20021;-62
2023/06/07 08:31:49;;;;;;;5.05;2.83;;;;;;;;;;5037686;28;20028;-66
2023/06/07 08:34:37;;;;;;;4.28;2.20;;;;;;;;;;5020404;28;20027;-67
2023/06/07 08:37:22;;;;;;;3.42;2.70;;;;;;;;;;5032514;28;20095;-68
2023/06/07 08:40:09;;;;;;;5.57;2.45;;;;;;;;;;5039455;28;20044;-68
2023/06/07 08:42:54;;;;;;;7.10;2.53;;;;;;;;;;5041092;28;20037;-67
2023/06/07 08:45:39;;;;;;;3.00;2.40;;;;;;;;;;5027835;28;20032;-68
2023/06/07 08:48:25;;;;;;;5.78;2.53;;;;;;;;;;5032778;28;20025;-66
2023/06/07 08:51:11;;;;;;;4.85;2.67;;;;;;;;;;5040543;28;20048;-76
2023/06/07 08:54:00;;;;;;;6.95;2.70;;;;;;;;;;5037100;28;20115;-75
2023/06/07 08:56:46;;;;;;;;;;;;;;;;;;5023160;28;20040;-73
2023/06/07 08:59:31;;;;;;;4.40;2.53;;;;;;;;;;5023590;28;19920;-75
2023/06/07 09:02:16;;;;;;;4.18;2.35;;;;;;;;;;5040213;28;20024;-74
2023/06/07 09:05:05;;;;;;;5.32;2.20;;;;;;;;;;5047666;28;20165;-77
2023/06/07 09:07:52;;;;;;;3.05;2.08;;;;;;;;;;5040126;28;20045;-76
2023/06/07 09:10:38;;;;;;;2.78;2.13;;;;;;;;;;5041341;28;20280;-64
2023/06/07 09:13:24;;;;;;;3.05;2.28;;;;;;;;;;5035516;28;20465;-75
2023/06/07 09:16:12;;;;;;;3.47;2.33;;;;;;;;;;5042548;28;20036;-73
2023/06/07 09:18:57;;;;;;;4.00;2.47;;;;;;;;;;5041676;28;20033;-75
2023/06/07 09:21:43;;;;;;;2.88;1.77;;;;;;;;;;5031840;28;20124;-74
2023/06/07 09:24:29;;;;;;;3.95;2.28;;;;;;;;;;5033616;28;20025;-74
2023/06/07 09:27:14;;;;;;;3.88;2.25;;;;;;;;;;5049372;28;20116;-66
2023/06/07 09:30:04;;;;;;;4.57;2.25;;;;;;;;;;5044641;28;20037;-67
2023/06/07 09:32:50;;;;;;;3.15;2.15;;;;;;;;;;5033818;28;20033;-67
2023/06/07 09:35:35;;;;;;;3.70;1.80;;;;;;;;;;5031975;28;20041;-66
2023/06/07 09:38:26;;;;;;;3.22;1.83;;;;;;;;;;5042751;28;20041;-67
2023/06/07 09:41:13;;;;;;;2.45;1.50;;;;;;;;;;5040118;28;20041;-68
2023/06/07 09:43:58;;;;;;;4.60;2.08;;;;;;;;;;5042316;28;20498;-69
2023/06/07 09:46:43;;;;;;;2.25;1.75;;;;;;;;;;5030655;28;20391;-72
2023/06/07 09:49:34;;;;;;;4.32;1.83;;;;;;;;;;5040264;28;20036;-68
2023/06/07 09:52:19;;;;;;;4.25;2.25;;;;;;;;;;5043129;28;20029;-67
2023/06/07 09:55:06;;;;;;;3.22;1.98;;;;;;;;;;5043161;28;20508;-67
2023/06/07 09:57:52;;;;;;;4.82;2.13;;;;;;;;;;5031381;28;20032;-67
2023/06/07 10:00:44;;;;;;;4.35;2.13;;;;;;;;;;5035721;28;20061;-69
2023/06/07 10:03:29;;;;;;;3.35;2.28;;;;;;;;;;5048006;28;20551;-66
2023/06/07 10:06:16;;;;;;;2.97;2.00;;;;;;;;;;5043095;28;20028;-72
2023/06/07 10:09:03;;;;;;;3.40;2.22;;;;;;;;;;5029401;28;20063;-74
2023/06/07 10:11:52;;;;;;;3.83;2.08;;;;;;;;;;5028425;28;20029;-73
2023/06/07 10:14:38;;;;;;;2.55;1.90;;;;;;;;;;5042500;28;20389;-73
2023/06/07 10:17:28;;;;;;;2.42;1.90;;;;;;;;;;5038804;28;20033;-70
2023/06/07 10:20:16;;;;;;;3.10;1.98;;;;;;;;;;5032134;28;20504;-72
2023/06/07 10:23:06;;;;;;;2.93;1.90;;;;;;;;;;5031972;28;20057;-73
2023/06/07 10:25:51;;;;;;;;;;;;;;;;;;5023958;28;20037;-69
2023/06/07 10:28:39;;;;;;;2.13;1.67;;;;;;;;;;5048110;28;20249;-68
2023/06/07 10:31:27;;;;;;;4.22;1.85;;;;;;;;;;5032403;28;20039;-68
2023/06/07 10:34:13;;;;;;;2.97;1.98;;;;;;;;;;5039999;28;20061;-69
2023/06/07 10:36:58;;;;;;;2.97;2.08;;;;;;;;;;5043376;28;20063;-65
2023/06/07 10:39:43;;;;;;;8.60;1.90;;;;;;;;;;5050136;28;20498;-67
2023/06/07 10:42:29;;;;;;;6.55;2.00;;;;;;;;;;5037097;28;20091;-62
2023/06/07 10:45:18;;;;;;;8.43;1.85;;;;;;;;;;5041362;28;20041;-75
2023/06/07 10:48:22;;;;;;;3.20;2.13;;;;;;;;;;5043164;28;20660;-76
2023/06/07 10:51:07;;;;;;;3.80;2.60;;;;;;;;;;5042752;28;20040;-77
2023/06/07 10:53:53;;;;;;;2.22;1.80;;;;;;;;;;5030181;28;20048;-78
2023/06/07 10:56:40;;;;;;;5.28;1.85;;;;;;;;;;5030126;28;20037;-77
2023/06/07 10:59:25;;;;;;;3.78;1.75;;;;;;;;;;5050035;28;20353;-68
2023/06/07 11:02:24;;;;;;;4.03;1.83;;;;;;;;;;5042517;28;20060;-69
2023/06/07 11:05:10;;;;;;;3.97;1.90;;;;;;;;;;5034753;28;20098;-70
2023/06/07 11:08:21;;;;;;;4.70;1.90;;;;;;;;;;5033571;28;20260;-69
2023/06/07 11:11:27;;;;;;;3.40;1.70;;;;;;;;;;5025922;28;20136;-68
2023/06/07 11:14:12;;;;;;;2.95;1.58;;;;;;;;;;5046477;28;20040;-71
2023/06/07 11:16:57;;;;;;;3.95;2.05;;;;;;;;;;5025262;28;20375;-70
2023/06/07 11:19:52;;;;;;;2.35;1.83;;;;;;;;;;5042329;28;20072;-64
2023/06/07 11:22:38;;;;;;;2.97;1.73;;;;;;;;;;5043430;28;20033;-78
2023/06/07 11:25:24;;;;;;;2.03;1.58;;;;;;;;;;5031013;28;20109;-80
2023/06/07 11:28:10;;;;;;;3.70;1.90;;;;;;;;;;5028309;28;20047;-79
2023/06/07 11:30:56;;;;;;;2.33;1.63;;;;;;;;;;5045028;28;20529;-80
2023/06/07 11:33:41;;;;;;;5.28;2.17;;;;;;;;;;5045252;28;20041;-80
2023/06/07 11:36:31;;;;;;;3.03;1.65;;;;;;;;;;5039622;28;20557;-72
2023/06/07 11:39:20;;;;;;;3.50;1.92;;;;;;;;;;5032496;28;20041;-65
2023/06/07 11:42:06;;;;;;;2.90;1.73;;;;;;;;;;5030083;28;20064;-66
2023/06/07 11:44:51;;;;;;;2.83;1.70;;;;;;;;;;5040605;28;20423;-67
2023/06/07 11:47:36;;;;;;;2.25;1.80;;;;;;;;;;5042252;28;20124;-65
2023/06/07 11:50:22;;;;;;;2.78;1.83;;;;;;;;;;5025772;28;20087;-64
2023/06/07 11:53:11;;;;;;;3.95;1.70;;;;;;;;;;5028068;28;20045;-64
2023/06/07 11:56:00;;;;;;;3.70;1.60;;;;;;;;;;5044066;28;20037;-71
2023/06/07 11:58:45;;;;;;;2.88;1.45;;;;;;;;;;5034179;28;20048;-70
2023/06/07 12:01:31;;;;;;;2.80;1.73;;;;;;;;;;5033272;28;20025;-69
2023/06/07 12:04:17;;;;;;;2.33;1.83;;;;;;;;;;5033140;28;20144;-71
2023/06/07 12:07:32;;;;;;;2.28;1.40;;;;;;;;;;5040582;28;20484;-70
2023/06/07 12:10:23;;;;;;;2.78;1.90;;;;;;;;;;5038058;28;20094;-68
2023/06/07 12:13:11;;;;;;;4.75;2.10;;;;;;;;;;5028845;28;20029;-74
2023/06/07 12:15:57;;;;;;;3.37;1.93;;;;;;;;;;5043154;28;20064;-70
2023/06/07 12:18:42;;;;;;;4.13;2.15;;;;;;;;;;5023001;28;20112;-70
2023/06/07 12:21:29;;;;;;;1.85;1.67;;;;;;;;;;5043733;28;20053;-69
2023/06/07 12:24:14;;;;;;;2.03;1.52;;;;;;;;;;5028792;28;20375;-70
2023/06/07 12:27:03;;;;;;;4.43;2.08;;;;;;;;;;5029533;28;20043;-69
2023/06/07 12:29:52;;;;;;;2.75;1.70;;;;;;;;;;5041510;28;20041;-68
2023/06/07 12:32:38;;;;;;;3.65;1.90;;;;;;;;;;5034480;28;20084;-74
2023/06/07 12:35:23;;;;;;;4.10;2.58;;;;;;;;;;5023126;28;20041;-64
2023/06/07 12:38:10;;;;;;;2.80;2.00;;;;;;;;;;5026583;28;20068;-64
2023/06/07 12:40:56;;;;;;;3.17;1.70;;;;;;;;;;5048168;28;20510;-63
2023/06/07 12:43:48;;;;;;;2.20;1.80;;;;;;;;;;5044846;28;20028;-63
2023/06/07 12:46:33;;;;;;;2.17;1.70;;;;;;;;;;5032482;28;20044;-64
2023/06/07 12:49:19;;;;;;;2.05;1.67;;;;;;;;;;5036694;28;20037;-70
2023/06/07 12:52:04;;;;;;;3.20;2.15;;;;;;;;;;5044728;28;20184;-69
2023/06/07 12:54:50;;;;;;;2.42;1.50;;;;;;;;;;5043521;28;20171;-68
2023/06/07 12:57:35;;;;;;;2.58;2.00;;;;;;;;;;5027845;28;20460;-67
2023/06/07 13:00:20;;;;;;;2.58;1.60;;;;;;;;;;5022642;28;20508;-70
2023/06/07 13:03:06;;;;;;;1.92;1.70;;;;;;;;;;5036709;28;20048;-69
2023/06/07 13:05:51;;;;;;;2.53;1.70;;;;;;;;;;5048282;28;20033;-68
2023/06/07 13:08:37;;;;;;;3.20;1.80;;;;;;;;;;5046227;28;20028;-68
2023/06/07 13:11:22;;;;;;;2.33;1.60;;;;;;;;;;5037033;28;20040;-64
2023/06/07 13:14:07;;;;;;;2.72;1.98;;;;;;;;;;5034484;28;20385;-63
2023/06/07 13:16:52;;;;;;;1.83;1.55;;;;;;;;;;5044952;28;20083;-63
2023/06/07 13:19:38;;;;;;;2.17;1.55;;;;;;;;;;5049838;28;20143;-62
2023/06/07 13:22:23;;;;;;;3.60;2.00;;;;;;;;;;5029268;28;20056;-64
2023/06/07 13:25:09;;;;;;;1.65;1.33;;;;;;;;;;5033267;28;20036;-66
2023/06/07 13:27:55;;;;;;;3.97;1.70;;;;;;;;;;5040128;28;20076;-69
2023/06/07 13:30:40;;;;;;;2.75;1.92;;;;;;;;;;5044089;28;20452;-72
2023/06/07 13:33:25;;;;;;;3.13;1.83;;;;;;;;;;5045643;28;20029;-73
2023/06/07 13:36:12;;;;;;;4.20;1.52;;;;;;;;;;5030067;28;20037;-71
2023/06/07 13:38:57;;;;;;;4.43;1.40;;;;;;;;;;5031109;28;20040;-71
2023/06/07 13:41:43;;;;;;;1.60;1.40;;;;;;;;;;5046612;28;20044;-73
2023/06/07 13:44:29;;;;;;;1.98;1.60;;;;;;;;;;5043051;28;20045;-69
2023/06/07 13:47:14;;;;;;;2.25;1.60;;;;;;;;;;5032721;28;20488;-69
2023/06/07 13:49:59;;;;;;;1.90;1.70;;;;;;;;;;5032537;28;20036;-67
2023/06/07 13:52:44;;;;;;;2.03;1.50;;;;;;;;;;5045480;28;20024;-69
2023/06/07 13:55:30;;;;;;;4.22;1.90;;;;;;;;;;5046661;28;20124;-67
2023/06/07 13:58:15;;;;;;;2.35;1.88;;;;;;;;;;5043447;28;20116;-67
2023/06/07 14:01:02;;;;;;;2.13;1.58;;;;;;;;;;5031238;28;20524;-67
2023/06/07 14:03:48;;;;;;;4.15;1.80;;;;;;;;;;5038618;28;20349;-78
2023/06/07 14:06:33;;;;;;;2.40;1.60;;;;;;;;;;5042312;28;20029;-73
2023/06/07 14:09:19;;;;;;;2.40;1.80;;;;;;;;;;5042332;28;20459;-72
2023/06/07 14:12:04;;;;;;;2.60;2.03;;;;;;;;;;5026513;28;20048;-73
2023/06/07 14:14:49;;;;;;;3.95;1.88;;;;;;;;;;5029942;28;20420;-72
2023/06/07 14:17:34;;;;;;;3.50;1.60;;;;;;;;;;5043524;28;20052;-72
2023/06/07 14:20:20;;;;;;;5.28;1.70;;;;;;;;;;5042052;28;20068;-73
2023/06/07 14:23:05;;;;;;;3.20;1.67;;;;;;;;;;5043095;28;20503;-73
2023/06/07 14:25:50;;;;;;;3.17;1.70;;;;;;;;;;5029676;28;20040;-70
2023/06/07 14:28:36;;;;;;;3.60;1.90;;;;;;;;;;5038130;28;20124;-69
2023/06/07 14:31:21;;;;;;;1.77;1.65;;;;;;;;;;5042595;28;20028;-69
2023/06/07 14:34:07;;;;;;;3.45;1.73;;;;;;;;;;5047412;28;20696;-69
2023/06/07 14:36:52;;;;;;;2.00;1.75;;;;;;;;;;5023081;28;20430;-69
2023/06/07 14:39:37;;;;;;;3.05;1.42;;;;;;;;;;5032265;28;20457;-65
2023/06/07 14:42:24;;;;;;;2.60;1.70;;;;;;;;;;5042953;28;20116;-65
2023/06/07 14:45:10;;;;;;;2.60;1.67;;;;;;;;;;5042742;28;20052;-66
2023/06/07 14:47:55;;;;;;;3.55;1.90;;;;;;;;;;5024798;28;20044;-67
2023/06/07 14:50:40;;;;;;;3.45;2.00;;;;;;;;;;5023984;28;20032;-67
2023/06/07 14:53:26;;;;;;;2.25;2.03;;;;;;;;;;5040328;28;20032;-67
2023/06/07 14:56:11;;;;;;;4.55;2.05;;;;;;;;;;5039633;28;20037;-66
2023/06/07 14:58:56;;;;;;;2.00;1.60;;;;;;;;;;5040831;28;20029;-73
2023/06/07 15:01:41;;;;;;;3.75;1.70;;;;;;;;;;5029952;28;20024;-69
2023/06/07 15:04:27;;;;;;;3.53;2.00;;;;;;;;;;5030535;28;20435;-69
2023/06/07 15:07:13;;;;;;;2.08;1.80;;;;;;;;;;5032261;28;20033;-68
2023/06/07 15:09:58;;;;;;;2.58;1.70;;;;;;;;;;5041118;28;20136;-68
2023/06/07 15:12:44;;;;;;;3.30;2.47;;;;;;;;;;5028451;28;20419;-70
2023/06/07 15:15:30;;;;;;;2.95;2.38;;;;;;;;;;5036588;28;20056;-69
2023/06/07 15:18:16;;;;;;;2.83;2.03;;;;;;;;;;5036612;28;20044;-72
2023/06/07 15:21:01;;;;;;;3.67;1.92;;;;;;;;;;5025622;28;20029;-69
2023/06/07 15:23:46;;;;;;;4.95;2.13;;;;;;;;;;5041086;28;20029;-66
2023/06/07 15:26:32;;;;;;;3.00;2.00;;;;;;;;;;5025287;28;20422;-68
2023/06/07 15:29:17;;;;;;;3.15;1.80;;;;;;;;;;5033506;28;20107;-68
2023/06/07 15:32:02;;;;;;;3.08;1.95;;;;;;;;;;5027360;28;20093;-67
2023/06/07 15:34:47;;;;;;;3.83;2.28;;;;;;;;;;5038278;28;20037;-68
2023/06/07 15:37:33;;;;;;;3.17;1.95;;;;;;;;;;5022887;28;20033;-74
2023/06/07 15:40:18;;;;;;;4.72;2.20;;;;;;;;;;5039860;28;20039;-69
2023/06/07 15:43:03;;;;;;;2.13;1.92;;;;;;;;;;5037598;28;20120;-69
2023/06/07 15:45:48;;;;;;;2.92;1.70;;;;;;;;;;5035259;28;20484;-72
2023/06/07 15:48:34;;;;;;;3.45;2.20;;;;;;;;;;5040943;28;20047;-71
2023/06/07 15:51:19;;;;;;;3.50;2.00;;;;;;;;;;5029834;28;20466;-71
2023/06/07 15:54:04;;;;;;;2.60;1.85;;;;;;;;;;5029976;28;20058;-67
2023/06/07 15:56:50;;;;;;;4.25;1.92;;;;;;;;;;5039800;28;20151;-64
2023/06/07 15:59:35;;;;;;;3.83;1.92;;;;;;;;;;5036657;28;20115;-63
2023/06/07 16:02:21;;;;;;;3.67;1.75;;;;;;;;;;5023162;28;20029;-63
2023/06/07 16:05:06;;;;;;;3.75;1.85;;;;;;;;;;5032010;28;20030;-64
2023/06/07 16:07:52;;;;;;;2.92;2.00;;;;;;;;;;5047060;28;20036;-69
2023/06/07 16:10:37;;;;;;;4.63;1.88;;;;;;;;;;5043611;28;20036;-65
2023/06/07 16:13:22;;;;;;;4.63;2.10;;;;;;;;;;5044554;28;20384;-70
2023/06/07 16:16:07;;;;;;;3.38;1.90;;;;;;;;;;5029835;28;20036;-64
2023/06/07 16:18:53;;;;;;;2.55;2.03;;;;;;;;;;5044274;28;20495;-67
2023/06/07 16:21:38;;;;;;;5.63;2.20;;;;;;;;;;5040377;28;20049;-66
2023/06/07 16:24:23;;;;;;;3.63;2.35;;;;;;;;;;5047715;28;20102;-67
2023/06/07 16:27:08;;;;;;;3.78;1.60;;;;;;;;;;5032831;28;20091;-68
2023/06/07 16:29:55;;;;;;;2.92;1.98;;;;;;;;;;5033258;28;20033;-71
2023/06/07 16:32:40;;;;;;;4.35;1.90;;;;;;;;;;5032614;28;20383;-71
2023/06/07 16:35:26;;;;;;;5.00;2.20;;;;;;;;;;5046722;28;20130;-72